Philipsburg, Pennsylvania
Current Conditions -  °F | °C
As of 6:54 AM on Sunday 25 Jan 2015 (Local Time) from KFIG Reporting Station
Overcast Overcast  
Wind Chill: 26°   Ceiling: 1200
Heat Index: 32°   Visibility: 10mi
Dew Point: 29°   Wind: 7mph
Humidity: 88%   Direction: 260°W
Pressure: 29.68"   Gusts: NA
Location:  40.9°N, 78.22°W
Report Text: KFIG 251154Z AUTO 26006KT 10SM OVC012 00/M02 A2968 RMK AO2 SLP068 60000 I6001 T00001017 10000 21011 51013
Loading
Personal Weather Stations






























Interactive Weather Map New forecast layout! Learn more

10-Day Weather Forecast

Advertisements
Track Severe Weather on mobile